createdAt,value
2018-02-14T00:00:07.676Z,-6.36
2018-02-14T00:01:07.620Z,-6.44
2018-02-14T00:02:07.601Z,-6.48
2018-02-14T00:03:07.594Z,-6.47
2018-02-14T00:04:07.572Z,-6.45
2018-02-14T00:05:07.561Z,-6.42
2018-02-14T00:06:07.575Z,-6.39
2018-02-14T00:07:07.559Z,-6.42
2018-02-14T00:08:07.521Z,-6.44
2018-02-14T00:09:07.508Z,-6.45
2018-02-14T00:10:07.498Z,-6.34
2018-02-14T00:11:07.484Z,-6.52
2018-02-14T00:12:07.470Z,-6.58
2018-02-14T00:13:07.453Z,-6.59
2018-02-14T00:14:07.442Z,-6.66
2018-02-14T00:15:07.431Z,-6.63
2018-02-14T00:16:07.418Z,-6.66
2018-02-14T00:17:07.401Z,-6.66
2018-02-14T00:18:07.388Z,-6.77
2018-02-14T00:19:07.376Z,-6.82
2018-02-14T00:20:07.365Z,-6.77
2018-02-14T00:21:07.346Z,-6.74
2018-02-14T00:22:07.395Z,-6.66
2018-02-14T00:23:07.324Z,-6.71
2018-02-14T00:24:07.309Z,-6.58
2018-02-14T00:25:07.292Z,-6.67
2018-02-14T00:26:07.280Z,-6.67
2018-02-14T00:27:07.266Z,-6.58
2018-02-14T00:28:07.255Z,-6.48
2018-02-14T00:29:07.237Z,-6.45
2018-02-14T00:30:07.228Z,-6.50
2018-02-14T00:31:07.221Z,-6.48
2018-02-14T00:32:07.199Z,-6.45
2018-02-14T00:33:07.183Z,-6.40
2018-02-14T00:34:07.170Z,-6.37
2018-02-14T00:35:07.157Z,-6.33
2018-02-14T00:36:07.145Z,-6.37
2018-02-14T00:37:07.132Z,-6.45
2018-02-14T00:38:07.116Z,-6.59
2018-02-14T00:39:07.106Z,-6.63
2018-02-14T00:40:07.090Z,-6.69
2018-02-14T00:41:07.077Z,-6.66
2018-02-14T00:42:07.065Z,-6.71
2018-02-14T00:43:07.049Z,-6.81
2018-02-14T00:44:07.037Z,-6.84
2018-02-14T00:45:07.020Z,-7.00
2018-02-14T00:46:07.007Z,-6.90
2018-02-14T00:47:06.995Z,-6.95
2018-02-14T00:48:06.988Z,-6.92
2018-02-14T00:49:06.966Z,-6.91
2018-02-14T00:50:06.961Z,-6.85
2018-02-14T00:51:06.941Z,-6.90
2018-02-14T00:52:06.929Z,-6.91
2018-02-14T00:53:06.920Z,-6.87
2018-02-14T00:54:06.899Z,-6.87
2018-02-14T00:55:06.886Z,-6.88
2018-02-14T00:56:06.870Z,-6.97
2018-02-14T00:57:06.856Z,-6.85
2018-02-14T00:58:06.852Z,-6.81
2018-02-14T00:59:06.833Z,-6.77
2018-02-14T01:00:06.815Z,-6.64
2018-02-14T01:01:06.804Z,-6.71
2018-02-14T01:02:06.791Z,-6.59
2018-02-14T01:03:06.774Z,-6.51
2018-02-14T01:04:06.762Z,-6.55
2018-02-14T01:05:06.747Z,-6.54
2018-02-14T01:06:06.737Z,-6.59
2018-02-14T01:07:06.725Z,-6.51
2018-02-14T01:08:06.708Z,-6.52
2018-02-14T01:09:06.709Z,-6.47
2018-02-14T01:10:06.681Z,-6.58
2018-02-14T01:11:06.664Z,-6.52
2018-02-14T01:12:06.653Z,-6.63
2018-02-14T01:13:06.641Z,-6.69
2018-02-14T01:14:06.621Z,-6.71
2018-02-14T01:15:06.612Z,-6.82
2018-02-14T01:16:06.596Z,-6.91
2018-02-14T01:17:06.584Z,-7.10
2018-02-14T01:18:06.570Z,-7.05
2018-02-14T01:19:06.558Z,-7.08
2018-02-14T01:20:06.541Z,-6.94
2018-02-14T01:21:06.526Z,-6.97
2018-02-14T01:22:06.512Z,-6.88
2018-02-14T01:23:06.498Z,-6.84
2018-02-14T01:24:06.484Z,-6.82
2018-02-14T01:25:06.471Z,-6.81
2018-02-14T01:26:06.458Z,-6.77
2018-02-14T01:27:06.475Z,-6.74
2018-02-14T01:28:06.434Z,-6.76
2018-02-14T01:29:06.416Z,-6.81
2018-02-14T01:30:06.404Z,-6.79
2018-02-14T01:31:06.390Z,-6.77
2018-02-14T01:32:06.399Z,-6.81
2018-02-14T01:33:06.385Z,-6.81
2018-02-14T01:34:06.349Z,-6.71
2018-02-14T01:35:06.331Z,-6.71
2018-02-14T01:36:06.348Z,-6.70
2018-02-14T01:37:06.320Z,-6.70
2018-02-14T01:38:06.289Z,-6.63
2018-02-14T01:39:06.278Z,-6.61
2018-02-14T01:40:06.262Z,-6.61
2018-02-14T01:41:06.249Z,-6.67
2018-02-14T01:42:06.237Z,-6.66
2018-02-14T01:43:06.221Z,-6.67
2018-02-14T01:44:06.210Z,-6.67
2018-02-14T01:45:06.197Z,-6.67
2018-02-14T01:46:06.198Z,-6.70
2018-02-14T01:47:06.172Z,-6.63
2018-02-14T01:48:06.188Z,-6.61
2018-02-14T01:49:06.137Z,-6.70
2018-02-14T01:50:06.129Z,-6.61
2018-02-14T01:51:06.111Z,-6.63
2018-02-14T01:52:06.108Z,-6.70
2018-02-14T01:53:06.084Z,-6.70
2018-02-14T01:54:06.068Z,-6.69
2018-02-14T01:55:06.057Z,-6.59
2018-02-14T01:56:06.044Z,-6.70
2018-02-14T01:57:06.027Z,-6.70
2018-02-14T01:58:06.041Z,-6.69
2018-02-14T01:59:06.000Z,-6.69
2018-02-14T02:00:05.986Z,-6.69
2018-02-14T02:01:05.971Z,-6.77
2018-02-14T02:02:05.958Z,-6.74
2018-02-14T02:03:05.943Z,-6.77
2018-02-14T02:04:05.935Z,-6.79
2018-02-14T02:05:05.917Z,-6.70
2018-02-14T02:06:05.902Z,-6.81
2018-02-14T02:07:05.888Z,-6.81
2018-02-14T02:09:39.159Z,-6.85
2018-02-14T02:10:39.161Z,-6.90
2018-02-14T02:12:33.671Z,-7.00
2018-02-14T02:13:33.350Z,-7.00
2018-02-14T02:15:27.826Z,-6.85
2018-02-14T02:16:27.655Z,-6.84
2018-02-14T02:18:22.330Z,-6.94
2018-02-14T02:19:22.188Z,-6.97
2018-02-14T02:21:17.204Z,-6.91
2018-02-14T02:22:16.310Z,-6.91
2018-02-14T02:24:10.974Z,-7.02
2018-02-14T02:25:10.698Z,-6.95
2018-02-14T02:27:05.922Z,-6.82
2018-02-14T02:28:05.342Z,-6.85
2018-02-14T02:29:59.681Z,-6.84
2018-02-14T02:30:59.401Z,-6.84
2018-02-14T02:32:54.033Z,-6.94
2018-02-14T02:33:53.942Z,-6.97
2018-02-14T02:35:49.299Z,-6.91
2018-02-14T02:36:48.278Z,-7.12
2018-02-14T02:38:42.407Z,-7.20
2018-02-14T02:39:42.382Z,-7.19
2018-02-14T02:41:36.968Z,-7.34
2018-02-14T02:42:37.456Z,-7.38
2018-02-14T02:44:32.578Z,-7.47
2018-02-14T02:45:31.968Z,-7.47
2018-02-14T02:46:31.761Z,-7.51
2018-02-14T02:47:32.067Z,-7.52
2018-02-14T02:48:31.598Z,-7.47
2018-02-14T02:49:31.579Z,-7.42
2018-02-14T02:50:31.565Z,-7.41
2018-02-14T02:51:31.553Z,-7.37
2018-02-14T02:52:31.538Z,-7.38
2018-02-14T02:53:31.525Z,-7.31
2018-02-14T02:54:31.508Z,-7.26
2018-02-14T02:55:31.497Z,-7.19
2018-02-14T02:56:31.478Z,-7.19
2018-02-14T02:57:31.492Z,-7.19
2018-02-14T02:58:31.482Z,-7.19
2018-02-14T02:59:31.437Z,-7.16
2018-02-14T03:00:31.427Z,-7.20
2018-02-14T03:01:31.413Z,-7.29
2018-02-14T03:02:31.405Z,-7.39
2018-02-14T03:03:31.382Z,-7.34
2018-02-14T03:04:31.369Z,-7.38
2018-02-14T03:05:31.373Z,-7.41
2018-02-14T03:06:31.339Z,-7.52
2018-02-14T03:07:31.346Z,-7.49
2018-02-14T03:08:31.313Z,-7.52
2018-02-14T03:09:31.299Z,-7.47
2018-02-14T03:10:31.284Z,-7.44
2018-02-14T03:11:31.265Z,-7.56
2018-02-14T03:12:31.273Z,-7.52
2018-02-14T03:13:31.243Z,-7.47
2018-02-14T03:14:31.234Z,-7.39
2018-02-14T03:15:31.229Z,-7.31
2018-02-14T03:16:31.198Z,-7.34
2018-02-14T03:17:31.179Z,-7.33
2018-02-14T03:18:31.178Z,-7.31
2018-02-14T03:19:31.153Z,-7.34
2018-02-14T03:20:31.153Z,-7.31
2018-02-14T03:21:31.129Z,-7.31
2018-02-14T03:22:31.114Z,-7.34
2018-02-14T03:23:31.094Z,-7.41
2018-02-14T03:24:31.082Z,-7.33
2018-02-14T03:25:31.076Z,-7.34
2018-02-14T03:26:31.052Z,-7.31
2018-02-14T03:27:31.037Z,-7.39
2018-02-14T03:28:31.019Z,-7.37
2018-02-14T03:29:31.037Z,-7.29
2018-02-14T03:30:31.019Z,-7.21
2018-02-14T03:31:30.982Z,-7.29
2018-02-14T03:32:31.011Z,-7.30
2018-02-14T03:33:30.976Z,-7.39
2018-02-14T03:34:30.953Z,-7.38
2018-02-14T03:35:30.961Z,-7.42
2018-02-14T03:36:30.908Z,-7.47
2018-02-14T03:37:30.901Z,-7.58
2018-02-14T03:38:30.888Z,-7.44
2018-02-14T03:39:30.890Z,-7.51
2018-02-14T03:40:30.900Z,-7.39
2018-02-14T03:41:30.846Z,-7.39
2018-02-14T03:42:30.827Z,-7.41
2018-02-14T03:43:30.823Z,-7.34
2018-02-14T03:44:30.796Z,-7.34
2018-02-14T03:45:30.813Z,-7.34
2018-02-14T03:46:30.810Z,-7.42
2018-02-14T03:47:30.759Z,-7.31
2018-02-14T03:48:30.740Z,-7.44
2018-02-14T03:49:30.719Z,-7.37
2018-02-14T03:50:30.711Z,-7.41
2018-02-14T03:51:30.691Z,-7.39
2018-02-14T03:52:30.677Z,-7.47
2018-02-14T03:53:30.667Z,-7.54
2018-02-14T03:54:30.645Z,-7.48
2018-02-14T03:55:30.669Z,-7.51
2018-02-14T03:56:30.673Z,-7.49
2018-02-14T03:57:30.605Z,-7.37
2018-02-14T03:58:30.619Z,-7.42
2018-02-14T03:59:30.632Z,-7.38
2018-02-14T04:00:30.559Z,-7.30
2018-02-14T04:01:30.544Z,-7.39
2018-02-14T04:02:30.530Z,-7.39
2018-02-14T04:03:30.527Z,-7.23
2018-02-14T04:04:30.508Z,-7.37
2018-02-14T04:05:30.490Z,-7.29
2018-02-14T04:06:30.511Z,-7.33
2018-02-14T04:07:30.465Z,-7.42
2018-02-14T04:08:30.466Z,-7.37
2018-02-14T04:09:30.432Z,-7.47
2018-02-14T04:10:30.416Z,-7.58
2018-02-14T04:11:30.406Z,-7.62
2018-02-14T04:12:30.388Z,-7.66
2018-02-14T04:13:30.384Z,-7.68
2018-02-14T04:14:30.363Z,-7.59
2018-02-14T04:15:30.369Z,-7.54
2018-02-14T04:16:30.358Z,-7.44
2018-02-14T04:17:30.313Z,-7.51
2018-02-14T04:18:30.299Z,-7.54
2018-02-14T04:19:30.285Z,-7.52
2018-02-14T04:20:30.276Z,-7.44
2018-02-14T04:21:30.254Z,-7.37
2018-02-14T04:22:30.240Z,-7.39
2018-02-14T04:23:30.250Z,-7.37
2018-02-14T04:24:30.214Z,-7.41
2018-02-14T04:25:30.196Z,-7.33
2018-02-14T04:26:30.184Z,-7.39
2018-02-14T04:27:30.170Z,-7.39
2018-02-14T04:28:30.157Z,-7.31
2018-02-14T04:29:30.175Z,-7.38
2018-02-14T04:30:30.125Z,-7.52
2018-02-14T04:31:30.109Z,-7.52
2018-02-14T04:32:30.102Z,-7.63
2018-02-14T04:33:30.082Z,-7.62
2018-02-14T04:34:30.071Z,-7.74
2018-02-14T04:35:30.055Z,-7.77
2018-02-14T04:36:30.038Z,-7.81
2018-02-14T04:37:30.023Z,-7.90
2018-02-14T04:38:30.064Z,-7.90
2018-02-14T04:39:29.997Z,-7.84
2018-02-14T04:40:29.979Z,-7.88
2018-02-14T04:41:29.965Z,-7.80
2018-02-14T04:42:29.951Z,-7.84
2018-02-14T04:43:29.937Z,-7.70
2018-02-14T04:44:29.926Z,-7.65
2018-02-14T04:45:29.907Z,-7.65
2018-02-14T04:46:29.894Z,-7.62
2018-02-14T04:47:29.917Z,-7.65
2018-02-14T04:48:29.862Z,-7.63
2018-02-14T04:49:29.865Z,-7.60
2018-02-14T04:50:29.835Z,-7.62
2018-02-14T04:51:29.821Z,-7.51
2018-02-14T04:52:29.811Z,-7.51
2018-02-14T04:53:29.827Z,-7.41
2018-02-14T04:54:29.776Z,-7.31
2018-02-14T04:55:29.770Z,-7.37
2018-02-14T04:56:29.747Z,-7.38
2018-02-14T04:57:29.773Z,-7.37
2018-02-14T04:58:29.731Z,-7.38
2018-02-14T04:59:29.736Z,-7.39
2018-02-14T05:00:29.691Z,-7.48
2018-02-14T05:01:29.677Z,-7.62
2018-02-14T05:02:29.661Z,-7.56
2018-02-14T05:03:29.642Z,-7.62
2018-02-14T05:04:29.638Z,-7.59
2018-02-14T05:05:29.617Z,-7.56
2018-02-14T05:06:29.603Z,-7.56
2018-02-14T05:07:29.586Z,-7.49
2018-02-14T05:08:29.571Z,-7.45
2018-02-14T05:09:29.557Z,-7.48
2018-02-14T05:10:29.543Z,-7.41
2018-02-14T05:11:29.533Z,-7.38
2018-02-14T05:12:29.511Z,-7.33
2018-02-14T05:13:29.501Z,-7.49
2018-02-14T05:14:29.487Z,-7.44
2018-02-14T05:15:29.468Z,-7.59
2018-02-14T05:16:29.475Z,-7.65
2018-02-14T05:17:29.444Z,-7.77
2018-02-14T05:18:29.427Z,-7.68
2018-02-14T05:19:29.416Z,-7.70
2018-02-14T05:20:31.172Z,-7.69
2018-02-14T05:21:31.060Z,-7.66
2018-02-14T05:23:26.072Z,-7.76
2018-02-14T05:24:25.681Z,-7.74
2018-02-14T05:26:20.066Z,-7.79
2018-02-14T05:27:22.352Z,-7.70
2018-02-14T05:28:22.432Z,-7.77
2018-02-14T05:30:16.838Z,-7.65
2018-02-14T05:31:16.698Z,-7.70
2018-02-14T05:32:11.463Z,-7.54
2018-02-14T05:33:10.665Z,-7.59
2018-02-14T05:35:05.898Z,-7.56
2018-02-14T05:36:05.274Z,-7.48
2018-02-14T05:37:59.732Z,-7.47
2018-02-14T05:38:59.559Z,-7.48
2018-02-14T05:40:54.362Z,-7.51
2018-02-14T05:42:02.584Z,-7.49
2018-02-14T05:43:48.301Z,-7.51
2018-02-14T05:44:48.040Z,-7.52
2018-02-14T05:46:42.574Z,-7.44
2018-02-14T05:47:42.500Z,-7.51
2018-02-14T05:49:38.532Z,-7.59
2018-02-14T05:50:36.958Z,-7.54
2018-02-14T05:51:36.592Z,-7.63
2018-02-14T05:52:36.903Z,-7.60
2018-02-14T05:53:36.553Z,-7.63
2018-02-14T05:54:36.531Z,-7.59
2018-02-14T05:55:36.599Z,-7.52
2018-02-14T05:56:36.441Z,-7.52
2018-02-14T05:57:36.416Z,-7.51
2018-02-14T05:58:36.401Z,-7.45
2018-02-14T05:59:36.389Z,-7.47
2018-02-14T06:00:36.373Z,-7.42
2018-02-14T06:01:36.393Z,-7.37
2018-02-14T06:02:36.344Z,-7.33
2018-02-14T06:03:36.330Z,-7.34
2018-02-14T06:04:36.315Z,-7.45
2018-02-14T06:05:36.301Z,-7.42
2018-02-14T06:06:36.288Z,-7.37
2018-02-14T06:07:36.299Z,-7.38
2018-02-14T06:08:36.279Z,-7.41
2018-02-14T06:09:36.243Z,-7.48
2018-02-14T06:10:36.236Z,-7.37
2018-02-14T06:11:36.218Z,-7.41
2018-02-14T06:12:36.229Z,-7.47
2018-02-14T06:13:36.186Z,-7.56
2018-02-14T06:14:36.172Z,-7.47
2018-02-14T06:15:36.157Z,-7.51
2018-02-14T06:16:36.144Z,-7.47
2018-02-14T06:17:36.131Z,-7.52
2018-02-14T06:18:36.109Z,-7.60
2018-02-14T06:19:36.093Z,-7.59
2018-02-14T06:20:36.082Z,-7.66
2018-02-14T06:21:36.152Z,-7.68
2018-02-14T06:22:36.081Z,-7.54
2018-02-14T06:23:36.041Z,-7.63
2018-02-14T06:24:36.022Z,-7.54
2018-02-14T06:25:36.011Z,-7.62
2018-02-14T06:26:35.994Z,-7.58
2018-02-14T06:27:35.980Z,-7.70
2018-02-14T06:28:35.964Z,-7.52
2018-02-14T06:29:35.949Z,-7.52
2018-02-14T06:30:35.935Z,-7.56
2018-02-14T06:31:35.919Z,-7.56
2018-02-14T06:32:35.906Z,-7.51
2018-02-14T06:33:35.891Z,-7.56
2018-02-14T06:34:35.879Z,-7.52
2018-02-14T06:35:35.899Z,-7.56
2018-02-14T06:36:35.849Z,-7.34
2018-02-14T06:37:35.832Z,-7.41
2018-02-14T06:38:35.818Z,-7.37
2018-02-14T06:39:35.802Z,-7.39
2018-02-14T06:40:35.789Z,-7.31
2018-02-14T06:41:35.777Z,-7.33
2018-02-14T06:42:35.759Z,-7.39
2018-02-14T06:43:35.759Z,-7.37
2018-02-14T06:44:35.733Z,-7.39
2018-02-14T06:45:35.724Z,-7.26
2018-02-14T06:46:35.729Z,-7.20
2018-02-14T06:47:35.689Z,-7.26
2018-02-14T06:48:35.743Z,-7.16
2018-02-14T06:49:35.704Z,-7.19
2018-02-14T06:50:35.648Z,-7.21
2018-02-14T06:51:35.737Z,-7.30
2018-02-14T06:52:35.736Z,-7.38
2018-02-14T06:53:35.677Z,-7.37
2018-02-14T06:54:35.626Z,-7.41
2018-02-14T06:55:35.580Z,-7.44
2018-02-14T06:56:35.575Z,-7.48
2018-02-14T06:57:35.571Z,-7.41
2018-02-14T06:58:35.572Z,-7.38
2018-02-14T06:59:35.583Z,-7.19
2018-02-14T07:00:35.513Z,-7.00
2018-02-14T07:01:35.491Z,-7.05
2018-02-14T07:02:35.506Z,-6.92
2018-02-14T07:03:35.460Z,-6.77
2018-02-14T07:04:35.489Z,-6.77
2018-02-14T07:05:35.469Z,-6.67
2018-02-14T07:06:35.441Z,-6.61
2018-02-14T07:07:35.428Z,-6.55
2018-02-14T07:08:35.450Z,-6.19
2018-02-14T07:09:35.376Z,-5.70
2018-02-14T07:10:35.362Z,-4.89
2018-02-14T07:11:35.406Z,-4.04
2018-02-14T07:12:35.339Z,-3.60
2018-02-14T07:13:35.320Z,-3.26
2018-02-14T07:14:35.328Z,-3.02
2018-02-14T07:15:35.444Z,-2.60
2018-02-14T07:16:35.281Z,-2.32
2018-02-14T07:17:35.320Z,-2.29
2018-02-14T07:18:35.319Z,-2.17
2018-02-14T07:19:35.244Z,-1.81
2018-02-14T07:20:35.242Z,-1.59
2018-02-14T07:21:35.253Z,-1.45
2018-02-14T07:22:35.218Z,-1.24
2018-02-14T07:23:35.216Z,-1.12
2018-02-14T07:24:35.204Z,-0.92
2018-02-14T07:25:35.190Z,-1.06
2018-02-14T07:26:35.191Z,-0.78
2018-02-14T07:27:35.192Z,-0.69
2018-02-14T07:28:35.200Z,-0.73
2018-02-14T07:29:35.202Z,-1.12
2018-02-14T07:30:35.144Z,-1.81
2018-02-14T07:31:35.134Z,-2.54
2018-02-14T07:32:35.138Z,-3.04
2018-02-14T07:33:35.122Z,-3.38
2018-02-14T07:34:35.113Z,-3.72
2018-02-14T07:35:35.104Z,-3.90
2018-02-14T07:36:35.097Z,-4.05
2018-02-14T07:37:35.100Z,-4.30
2018-02-14T07:38:35.209Z,-4.51
2018-02-14T07:39:35.076Z,-4.61
2018-02-14T07:40:35.113Z,-4.79
2018-02-14T07:41:35.058Z,-4.73
2018-02-14T07:44:08.224Z,-4.85
2018-02-14T07:45:08.272Z,-4.87
2018-02-14T07:46:08.107Z,-4.91
2018-02-14T07:47:08.163Z,-4.97
2018-02-14T07:48:08.113Z,-5.01
2018-02-14T07:49:08.060Z,-5.05
2018-02-14T07:50:08.052Z,-5.08
2018-02-14T07:51:08.039Z,-5.04
2018-02-14T07:52:08.029Z,-5.11
2018-02-14T07:53:08.022Z,-5.05
2018-02-14T07:54:08.011Z,-5.16
2018-02-14T07:55:08.094Z,-5.19
2018-02-14T07:56:07.989Z,-5.05
2018-02-14T07:57:07.977Z,-5.11
2018-02-14T07:58:07.966Z,-5.03
2018-02-14T07:59:07.953Z,-4.98
2018-02-14T08:00:08.009Z,-4.97
2018-02-14T08:01:07.939Z,-4.98
2018-02-14T08:02:07.925Z,-4.98
2018-02-14T08:03:07.914Z,-4.98
2018-02-14T08:04:07.900Z,-4.97
2018-02-14T08:05:07.887Z,-4.97
2018-02-14T08:06:07.882Z,-5.01
2018-02-14T08:07:07.874Z,-4.98
2018-02-14T08:08:07.921Z,-4.82
2018-02-14T08:09:10.884Z,-4.91
2018-02-14T08:10:07.850Z,-4.80
2018-02-14T08:11:07.845Z,-4.73
2018-02-14T08:12:07.842Z,-4.58
2018-02-14T08:13:07.824Z,-4.55
2018-02-14T08:14:08.689Z,-4.43
2018-02-14T08:15:07.952Z,-4.36
2018-02-14T08:16:23.256Z,-4.22
2018-02-14T08:20:13.693Z,-3.50
2018-02-14T08:21:12.186Z,-2.76
2018-02-14T08:23:07.530Z,-1.18
2018-02-14T08:24:06.636Z,-0.41
2018-02-14T08:26:01.222Z,0.62
2018-02-14T08:27:01.090Z,1.22
2018-02-14T08:28:55.519Z,2.37
2018-02-14T08:30:08.556Z,3.06
2018-02-14T08:31:49.947Z,3.80
2018-02-14T08:32:49.764Z,3.98
2018-02-14T08:34:44.137Z,4.06
2018-02-14T08:35:44.119Z,4.28
2018-02-14T08:36:44.185Z,4.59
2018-02-14T08:37:44.142Z,4.61
2018-02-14T08:38:44.064Z,4.89
2018-02-14T08:39:44.062Z,5.38
2018-02-14T08:40:54.149Z,5.81
2018-02-14T08:42:38.613Z,5.81
2018-02-14T08:43:38.441Z,6.00
2018-02-14T08:45:33.356Z,6.30
2018-02-14T08:46:32.794Z,6.59
2018-02-14T08:48:27.167Z,6.99
2018-02-14T08:49:27.157Z,7.01
2018-02-14T08:51:23.163Z,7.15
2018-02-14T08:52:23.128Z,7.17
2018-02-14T08:54:19.588Z,7.63
2018-02-14T08:55:28.732Z,7.89
2018-02-14T08:57:14.546Z,7.94
2018-02-14T08:58:12.843Z,8.29
2018-02-14T09:00:07.233Z,8.99
2018-02-14T09:01:07.229Z,9.34
2018-02-14T09:03:16.605Z,9.56
2018-02-14T09:04:15.423Z,9.57
2018-02-14T09:05:15.507Z,9.71
2018-02-14T09:06:15.404Z,9.78
2018-02-14T09:07:15.490Z,10.07
2018-02-14T09:08:15.389Z,10.07
2018-02-14T09:09:15.397Z,10.30
2018-02-14T09:10:15.626Z,10.51
2018-02-14T09:11:15.404Z,10.65
2018-02-14T09:12:15.409Z,10.81
2018-02-14T09:13:15.415Z,10.83
2018-02-14T09:14:15.467Z,10.65
2018-02-14T09:15:15.569Z,10.32
2018-02-14T09:16:15.433Z,9.99
2018-02-14T09:17:15.445Z,10.14
2018-02-14T09:18:15.479Z,9.64
2018-02-14T09:19:15.457Z,10.21
2018-02-14T09:20:15.461Z,10.71
2018-02-14T09:21:16.188Z,10.84
2018-02-14T09:22:15.479Z,11.17
2018-02-14T09:28:44.047Z,10.30
2018-02-14T09:29:44.024Z,10.03
2018-02-14T09:30:44.049Z,10.32
2018-02-14T09:31:44.036Z,10.34
2018-02-14T09:32:44.074Z,10.15
2018-02-14T09:33:44.005Z,10.07
2018-02-14T09:34:44.047Z,9.79
2018-02-14T09:35:44.023Z,9.86
2018-02-14T09:36:44.040Z,10.53
2018-02-14T09:37:44.947Z,11.02
2018-02-14T09:38:44.057Z,11.16
2018-02-14T09:39:44.062Z,11.29
2018-02-14T09:40:44.075Z,11.24
2018-02-14T09:41:44.084Z,10.78
2018-02-14T09:42:44.094Z,10.18
2018-02-14T09:43:44.106Z,10.01
2018-02-14T09:44:44.119Z,10.17
2018-02-14T09:45:44.124Z,10.26
2018-02-14T09:46:44.133Z,10.47
2018-02-14T09:47:44.144Z,10.76
2018-02-14T09:48:44.189Z,10.52
2018-02-14T09:49:44.167Z,9.78
2018-02-14T09:50:44.180Z,9.94
2018-02-14T09:51:44.190Z,9.83
2018-02-14T09:52:44.208Z,10.06
2018-02-14T09:53:44.211Z,10.46
2018-02-14T09:54:44.223Z,9.99
2018-02-14T09:55:44.232Z,10.42
2018-02-14T09:56:44.244Z,10.73
2018-02-14T09:57:44.255Z,9.79
2018-02-14T09:58:44.266Z,9.71
2018-02-14T09:59:44.277Z,9.57
2018-02-14T10:00:44.312Z,8.93
2018-02-14T10:01:46.319Z,9.23
2018-02-14T10:02:44.322Z,9.09
2018-02-14T10:03:44.325Z,9.43
2018-02-14T10:04:44.337Z,9.94
2018-02-14T10:05:44.359Z,9.85
2018-02-14T10:06:44.361Z,10.01
2018-02-14T10:07:44.373Z,10.18
2018-02-14T10:08:44.386Z,9.73
2018-02-14T10:09:44.400Z,9.42
2018-02-14T10:10:44.408Z,8.94
2018-02-14T10:11:44.420Z,8.93
2018-02-14T10:12:44.434Z,8.79
2018-02-14T10:13:44.445Z,8.90
2018-02-14T10:14:44.470Z,8.18
2018-02-14T10:15:44.472Z,7.37
2018-02-14T10:16:44.482Z,7.29
2018-02-14T10:17:44.496Z,6.65
2018-02-14T10:18:44.512Z,6.44
2018-02-14T10:19:44.527Z,6.33
2018-02-14T10:20:44.534Z,6.22
2018-02-14T10:21:44.548Z,5.86
2018-02-14T10:22:44.559Z,5.86
2018-02-14T10:23:44.586Z,5.66
2018-02-14T10:24:44.588Z,5.55
2018-02-14T10:25:44.599Z,5.19
2018-02-14T10:26:44.610Z,4.47
2018-02-14T10:27:44.623Z,4.47
2018-02-14T10:28:44.630Z,4.65
2018-02-14T10:29:44.641Z,4.83
2018-02-14T10:30:44.653Z,5.02
2018-02-14T10:31:44.674Z,5.10
2018-02-14T10:32:44.727Z,4.52
2018-02-14T10:33:44.691Z,4.42
2018-02-14T10:34:44.768Z,4.69
2018-02-14T10:35:44.717Z,4.89
2018-02-14T10:36:44.721Z,4.91
2018-02-14T10:37:44.733Z,4.96
2018-02-14T10:38:44.754Z,5.09
2018-02-14T10:39:44.756Z,5.09
2018-02-14T10:40:44.772Z,5.32
2018-02-14T10:41:44.802Z,5.30
2018-02-14T10:42:44.788Z,5.05
2018-02-14T10:43:44.798Z,5.12
2018-02-14T10:44:44.808Z,5.12
2018-02-14T10:45:44.819Z,5.43
2018-02-14T10:46:44.829Z,5.34
2018-02-14T10:47:44.848Z,5.60
2018-02-14T10:48:44.851Z,5.77
2018-02-14T10:49:44.857Z,5.71
2018-02-14T10:50:44.867Z,5.59
2018-02-14T10:51:44.889Z,5.70
2018-02-14T10:52:44.877Z,5.31
2018-02-14T10:53:44.908Z,5.46
2018-02-14T10:54:44.893Z,5.28
2018-02-14T10:55:44.900Z,4.34
2018-02-14T10:56:44.905Z,4.54
2018-02-14T10:57:44.908Z,4.00
2018-02-14T10:58:44.914Z,4.19
2018-02-14T10:59:44.932Z,4.42
2018-02-14T11:00:44.924Z,3.94
2018-02-14T11:01:45.221Z,4.33
2018-02-14T11:02:45.037Z,4.59
2018-02-14T11:03:44.933Z,4.67
2018-02-14T11:04:44.941Z,4.84
2018-02-14T11:05:44.937Z,4.96
2018-02-14T11:06:44.938Z,4.73
2018-02-14T11:07:44.937Z,4.88
2018-02-14T11:08:44.944Z,5.13
2018-02-14T11:09:44.940Z,5.43
2018-02-14T11:10:44.940Z,5.74
2018-02-14T11:11:44.942Z,5.71
2018-02-14T11:12:44.942Z,5.78
2018-02-14T11:13:44.942Z,5.77
2018-02-14T11:14:44.943Z,5.49
2018-02-14T11:15:44.947Z,5.68
2018-02-14T11:16:44.950Z,5.28
2018-02-14T11:17:44.971Z,5.01
2018-02-14T11:18:44.949Z,4.64
2018-02-14T11:19:44.942Z,4.91
2018-02-14T11:20:44.946Z,5.17
2018-02-14T11:21:44.939Z,5.55
2018-02-14T11:22:44.944Z,5.73
2018-02-14T11:23:44.944Z,6.00
2018-02-14T11:24:44.937Z,6.11
2018-02-14T11:25:44.936Z,6.22
2018-02-14T11:26:44.942Z,6.35
2018-02-14T11:27:44.933Z,6.41
2018-02-14T11:28:44.992Z,6.22
2018-02-14T11:29:44.954Z,6.43
2018-02-14T11:30:45.203Z,6.51
2018-02-14T11:31:44.933Z,6.38
2018-02-14T11:32:44.930Z,6.28
2018-02-14T11:33:45.011Z,6.07
2018-02-14T11:34:44.929Z,5.96
2018-02-14T11:35:44.930Z,5.88
2018-02-14T11:36:44.925Z,5.86
2018-02-14T11:37:45.134Z,5.75
2018-02-14T11:38:44.917Z,5.68
2018-02-14T11:39:44.923Z,5.70
2018-02-14T11:40:44.918Z,5.52
2018-02-14T11:41:45.992Z,5.70
2018-02-14T11:42:44.917Z,5.67
2018-02-14T11:43:44.911Z,5.75
2018-02-14T11:44:44.913Z,5.70
2018-02-14T11:45:44.911Z,5.70
2018-02-14T11:46:44.910Z,5.66
2018-02-14T11:47:44.934Z,5.66
2018-02-14T11:48:44.897Z,5.74
2018-02-14T11:49:44.901Z,5.73
2018-02-14T11:50:44.897Z,5.74
2018-02-14T11:51:44.901Z,5.82
2018-02-14T11:52:44.898Z,5.83
2018-02-14T11:53:44.891Z,5.98
2018-02-14T11:54:44.888Z,5.89
2018-02-14T11:55:44.883Z,5.75
2018-02-14T11:56:44.884Z,5.67
2018-02-14T11:57:44.882Z,5.71
2018-02-14T11:58:44.880Z,5.78
2018-02-14T11:59:44.896Z,5.73
2018-02-14T12:00:44.886Z,5.60
2018-02-14T12:01:44.882Z,5.77
2018-02-14T12:02:44.881Z,5.82
2018-02-14T12:03:44.881Z,5.88
2018-02-14T12:04:45.122Z,5.96
2018-02-14T12:05:49.461Z,6.13
2018-02-14T12:06:47.570Z,6.06
2018-02-14T12:07:45.863Z,6.00
2018-02-14T12:08:45.632Z,6.06
2018-02-14T12:09:44.905Z,6.06
2018-02-14T12:10:49.678Z,6.00
2018-02-14T12:11:45.271Z,5.85
2018-02-14T12:12:45.286Z,5.63
2018-02-14T12:13:45.014Z,5.57
2018-02-14T12:14:45.139Z,5.55
2018-02-14T12:15:44.920Z,5.73
2018-02-14T12:16:44.866Z,5.67
2018-02-14T12:17:44.834Z,5.31
2018-02-14T12:18:44.847Z,5.27
2018-02-14T12:19:44.887Z,5.31
2018-02-14T12:20:44.831Z,5.34
2018-02-14T12:21:44.846Z,5.45
2018-02-14T12:22:44.847Z,5.63
2018-02-14T12:23:44.838Z,5.66
2018-02-14T12:24:44.818Z,5.70
2018-02-14T12:25:44.809Z,5.73
2018-02-14T12:26:44.835Z,5.70
2018-02-14T12:27:44.890Z,5.77
2018-02-14T12:28:44.806Z,5.75
2018-02-14T12:29:44.798Z,5.78
2018-02-14T12:30:44.814Z,5.81
2018-02-14T12:31:44.787Z,5.73
2018-02-14T12:32:44.782Z,5.67
2018-02-14T12:33:44.782Z,5.70
2018-02-14T12:34:44.780Z,5.25
2018-02-14T12:35:44.773Z,5.25
2018-02-14T12:36:44.773Z,5.32
2018-02-14T12:37:44.824Z,5.32
2018-02-14T12:38:44.778Z,5.50
2018-02-14T12:39:44.851Z,5.57
2018-02-14T12:40:44.760Z,5.70
2018-02-14T12:41:44.769Z,5.75
2018-02-14T12:42:44.753Z,5.77
2018-02-14T12:43:44.751Z,5.85
2018-02-14T12:44:44.751Z,5.86
2018-02-14T12:45:44.772Z,5.81
2018-02-14T12:46:44.760Z,5.74
2018-02-14T12:47:44.732Z,5.67
2018-02-14T12:48:44.733Z,5.68
2018-02-14T12:49:44.731Z,5.66
2018-02-14T12:50:44.725Z,5.67
2018-02-14T12:51:44.726Z,5.71
2018-02-14T12:52:44.714Z,5.78
2018-02-14T12:53:44.721Z,5.77
2018-02-14T12:54:44.717Z,5.75
2018-02-14T12:55:44.734Z,5.73
2018-02-14T12:56:44.701Z,5.46
2018-02-14T12:57:44.700Z,5.49
2018-02-14T12:58:44.698Z,5.49
2018-02-14T12:59:44.694Z,5.30
2018-02-14T13:00:44.688Z,5.34
2018-02-14T13:01:44.724Z,5.34
2018-02-14T13:02:44.692Z,5.50
2018-02-14T13:03:44.680Z,5.43
2018-02-14T13:04:44.749Z,5.35
2018-02-14T13:05:44.671Z,5.43
2018-02-14T13:06:44.729Z,5.52
2018-02-14T13:07:44.673Z,5.55
2018-02-14T13:08:44.764Z,5.57
2018-02-14T13:09:44.659Z,5.66
2018-02-14T13:10:44.653Z,5.66
2018-02-14T13:11:44.646Z,5.63
2018-02-14T13:12:44.767Z,5.56
2018-02-14T13:13:44.692Z,5.68
2018-02-14T13:14:44.645Z,5.59
2018-02-14T13:15:44.635Z,5.32
2018-02-14T13:16:44.637Z,5.02
2018-02-14T13:17:44.626Z,4.98
2018-02-14T13:18:44.622Z,5.07
2018-02-14T13:19:44.618Z,5.09
2018-02-14T13:20:44.614Z,5.31
2018-02-14T13:21:44.620Z,5.34
2018-02-14T13:22:44.604Z,5.38
2018-02-14T13:23:44.602Z,5.43
2018-02-14T13:24:44.600Z,5.53
2018-02-14T13:25:44.595Z,5.57
2018-02-14T13:26:44.591Z,5.59
2018-02-14T13:27:44.599Z,5.74
2018-02-14T13:28:44.630Z,5.75
2018-02-14T13:29:44.595Z,5.64
2018-02-14T13:30:44.576Z,5.50
2018-02-14T13:31:44.572Z,5.49
2018-02-14T13:32:44.566Z,5.49
2018-02-14T13:33:44.571Z,5.52
2018-02-14T13:34:44.559Z,5.30
2018-02-14T13:35:44.558Z,5.30
2018-02-14T13:36:44.552Z,5.27
2018-02-14T13:37:44.548Z,5.30
2018-02-14T13:38:44.546Z,5.35
2018-02-14T13:39:44.539Z,5.34
2018-02-14T13:40:44.538Z,5.27
2018-02-14T13:41:44.587Z,5.14
2018-02-14T13:42:44.535Z,5.20
2018-02-14T13:43:44.523Z,5.16